CheckWX is a tool to help pilots better visualize weather data.  It is not intended as a substitute for an official pre-flight weather briefing.

13:41:10 UTC

KESF METAR
Esler Regional Airport
Alexandria, Louisiana, USA
Current

48 mins ago

KESF 211253Z AUTO 00000KT 10SM CLR 21/21 A3015 RMK AO2 SLP207 T02060206
Observed
Sep-21 @ 12:53 UTC
Visibility
10 SM
Flight Rules
VFR
Cloud Levels
  • Clear skies
Temperature
21°C / 70°F
Dewpoint
21°C / 70°F
Humidity
100%
Altimeter
30.15" Hg
Pressure
1021.02 hPa
Previous

2 hours ago

KESF 211153Z AUTO 00000KT 6SM BR CLR 19/19 A3013 RMK AO2 SLP200 70042 T01890189 10211 20183 51008
Observed
Sep-21 @ 11:53 UTC
Visibility
6 SM
Flight Rules
VFR
Conditions
Mist
Cloud Levels
  • Clear skies
Temperature
19°C / 66°F
Dewpoint
19°C / 66°F
Humidity
100%
Altimeter
30.13" Hg
Pressure
1020.32 hPa
24 Hour Rain
0.42"
Previous

2 hours ago

KESF 211143Z AUTO 08003KT 1 3/4SM BR FEW020 18/18 A3012 RMK AO2 VIS 3/4V5 T01830178
Observed
Sep-21 @ 11:43 UTC
Wind
  • 080° at 3 KTS
Visibility
1 3/4 SM
Flight Rules
IFR
Conditions
Mist
Cloud Levels
  • Few at 2,000' AGL
Temperature
18°C / 64°F
Dewpoint
18°C / 64°F
Humidity
100%
Altimeter
30.12" Hg
Pressure
1020.02 hPa